Time;durP1;ratioP1;P1;durP2;ratioP2;P2;SDS_P1;SDS_P2;PMS_P1;PMS_P2;Temp;Humidity;BMP_temperature;BMP_pressure;BME280_temperature;BME280_humidity;BME280_pressure;Samples;Min_cycle;Max_cycle;Signal;HPM_P1;HPM_P2
2021/07/24 00:01:35;;;;;;;27.00;3.78;;;20.10;99.90;;;20.37;70.77;101251.47;4921996;29;20501;-68
2021/07/24 00:04:06;;;;;;;2.50;2.40;;;20.10;99.90;;;20.35;70.43;101251.53;4939070;29;20040;-68
2021/07/24 00:06:47;;;;;;;2.78;2.58;;;20.10;99.90;;;20.32;70.76;101251.69;4939254;29;20446;-68
2021/07/24 00:09:16;;;;;;;2.47;2.38;;;20.10;99.90;;;20.38;70.50;101237.97;4938942;29;20102;-68
2021/07/24 00:11:44;;;;;;;2.63;2.53;;;20.10;99.90;;;20.31;70.70;101239.16;4938190;29;20043;-68
2021/07/24 00:14:12;;;;;;;3.35;3.25;;;20.10;99.90;;;20.22;70.88;101239.50;4938787;29;20044;-68
2021/07/24 00:16:41;;;;;;;3.10;3.00;;;20.00;99.90;;;20.30;70.56;101248.16;4921685;29;20055;-68
2021/07/24 00:19:09;;;;;;;2.70;2.60;;;20.00;99.90;;;20.30;70.77;101239.22;4938708;29;20405;-68
2021/07/24 00:21:38;;;;;;;3.08;2.88;;;20.00;99.90;;;20.30;70.36;101240.09;4921555;29;20106;-68
2021/07/24 00:24:08;;;;;;;2.85;2.72;;;20.00;99.90;;;20.27;70.52;101226.78;4938618;29;20067;-68
2021/07/24 00:26:36;;;;;;;2.45;2.35;;;20.00;99.90;;;20.20;70.54;101225.25;4938602;29;20461;-68
2021/07/24 00:29:05;;;;;;;2.65;2.55;;;20.00;99.90;;;20.24;70.45;101228.69;4921411;29;20123;-68
2021/07/24 00:31:38;;;;;;;2.78;2.67;;;20.00;99.90;;;20.27;70.62;101220.50;4938575;29;20040;-68
2021/07/24 00:34:07;;;;;;;2.35;2.25;;;20.00;99.90;;;20.29;70.49;101203.41;4938203;29;20071;-68
2021/07/24 00:36:35;;;;;;;2.75;2.65;;;20.00;99.90;;;20.24;70.46;101194.66;4938400;29;20044;-68
2021/07/24 00:39:07;;;;;;;3.22;3.10;;;20.00;99.90;;;20.15;70.21;101197.66;4938369;29;20106;-68
2021/07/24 00:41:44;;;;;;;2.85;2.75;;;19.90;99.90;;;19.41;70.48;101060.03;4938039;29;20402;-68
2021/07/24 00:44:16;;;;;;;3.72;3.53;;;19.90;99.90;;;20.16;70.29;101185.09;4921258;29;20052;-68
2021/07/24 00:46:46;;;;;;;3.65;2.85;;;19.90;99.90;;;20.03;70.15;101168.59;4921262;29;20138;-68
2021/07/24 00:49:16;;;;;;;2.35;2.25;;;19.80;99.90;;;19.40;70.49;101052.91;4938173;29;20135;-68
2021/07/24 00:51:55;;;;;;;3.47;3.03;;;19.80;99.90;;;20.11;70.68;101171.84;4921370;29;20052;-68
2021/07/24 00:54:25;;;;;;;;;;;19.80;99.90;;;20.10;70.57;101167.41;4938812;29;20545;-68
2021/07/24 00:56:53;;;;;;;2.97;2.80;;;19.80;99.90;;;20.05;70.63;101153.31;4920587;29;19923;-68
2021/07/24 00:59:21;;;;;;;5.95;3.97;;;19.80;99.90;;;20.08;70.75;101153.16;4937716;29;20462;-68
2021/07/24 01:01:51;;;;;;;4.03;3.72;;;19.80;99.90;;;20.02;70.74;101142.66;4920832;29;20078;-68
2021/07/24 01:04:20;;;;;;;;;;;19.70;99.90;;;20.11;70.34;101147.66;4921153;29;20143;-68
2021/07/24 01:06:49;;;;;;;3.40;3.30;;;19.80;99.90;;;20.10;70.33;101147.72;4920765;29;20296;-68
2021/07/24 01:09:20;;;;;;;3.20;3.05;;;19.80;99.90;;;20.06;70.53;101130.88;4920741;29;20142;-68
2021/07/24 01:11:50;;;;;;;3.03;2.92;;;19.80;99.90;;;20.10;70.63;101127.13;4920790;29;20051;-68
2021/07/24 01:14:19;;;;;;;4.90;4.53;;;19.80;99.90;;;19.99;70.31;101115.94;4920683;29;20138;-68
2021/07/24 01:16:48;;;;;;;2.50;2.40;;;19.80;99.90;;;19.96;70.51;101118.72;4920595;29;20044;-68
2021/07/24 01:19:24;;;;;;;2.65;2.55;;;19.70;99.90;;;19.58;70.49;101046.84;4920561;29;20055;-68
2021/07/24 01:21:54;;;;;;;3.10;3.00;;;19.80;99.90;;;19.86;70.33;101100.34;4937004;29;20048;-69
2021/07/24 01:24:24;;;;;;;3.92;3.72;;;19.70;99.90;;;20.03;70.44;101114.88;4919644;29;20055;-68
2021/07/24 01:26:54;;;;;;;;;;;19.80;99.90;;;20.05;70.31;101118.38;4920852;29;20079;-68
2021/07/24 01:29:23;;;;;;;3.30;3.20;;;19.70;99.90;;;20.05;70.33;101106.75;4920356;29;19923;-68
2021/07/24 01:31:56;;;;;;;2.67;2.58;;;19.80;99.90;;;20.08;70.36;101112.88;4937132;29;20478;-68
2021/07/24 01:34:27;;;;;;;;;;;19.70;99.90;;;20.02;70.25;101101.47;4920372;29;20144;-68
2021/07/24 01:36:59;;;;;;;3.65;3.35;;;19.80;99.90;;;20.06;70.35;101100.44;4920514;29;19923;-68
2021/07/24 01:39:27;;;;;;;2.87;2.77;;;19.80;99.90;;;20.07;70.27;101096.81;4920135;29;20138;-68
2021/07/24 01:41:57;;;;;;;2.80;2.63;;;19.80;99.90;;;20.08;70.17;101086.00;4920024;29;20311;-68
2021/07/24 01:44:28;;;;;;;2.60;2.50;;;19.80;99.90;;;20.07;70.40;101086.97;4920115;29;20051;-68
2021/07/24 01:46:57;;;;;;;2.78;2.67;;;19.80;99.90;;;20.07;70.44;101086.97;4920194;29;20054;-68
2021/07/24 01:52:48;;;;;;;4.53;4.15;;;19.80;99.90;;;19.87;70.58;101065.38;4937062;29;20050;-68
2021/07/24 01:55:22;;;;;;;2.92;2.83;;;19.70;99.90;;;19.93;70.77;101072.31;4936616;29;20422;-68
2021/07/24 01:58:24;;;;;;;3.47;3.30;;;19.60;99.90;;;19.97;70.72;101058.72;4933679;29;20490;-68
2021/07/24 02:00:59;;;;;;;;;;;19.70;99.90;;;19.91;70.64;101042.84;4920217;29;20048;-68
2021/07/24 02:03:37;;;;;;;3.53;3.22;;;19.70;99.90;;;19.93;70.64;101042.78;4936872;29;20376;-69
2021/07/24 02:06:25;;;;;;;2.78;2.67;;;19.70;99.90;;;19.99;70.53;101048.78;4937102;29;20557;-68
2021/07/24 02:09:24;;;;;;;5.00;4.63;;;19.70;99.90;;;19.88;70.74;101044.78;4923750;29;20059;-68
2021/07/24 02:11:59;;;;;;;2.60;2.50;;;19.60;99.90;;;19.87;70.80;101045.72;4936773;29;20043;-68
2021/07/24 02:14:35;;;;;;;2.65;2.55;;;19.60;99.90;;;19.83;70.75;101036.91;4919627;29;20111;-68
2021/07/24 02:17:14;;;;;;;3.95;3.65;;;19.50;99.90;;;19.77;70.71;101055.94;4936672;29;20036;-68
2021/07/24 02:19:44;;;;;;;3.50;3.20;;;19.50;99.90;;;19.66;71.04;101042.06;4919549;29;20051;-68
2021/07/24 02:22:13;;;;;;;3.92;3.63;;;19.40;99.90;;;19.64;71.44;101057.34;4936476;29;20054;-68
2021/07/24 02:24:49;;;;;;;3.15;3.03;;;19.40;99.90;;;19.69;71.56;101055.34;4919280;29;20055;-68
2021/07/24 02:27:18;;;;;;;3.60;3.40;;;19.40;99.90;;;19.51;71.78;101050.72;4919507;29;20051;-68
2021/07/24 02:29:47;;;;;;;3.50;3.30;;;19.30;99.90;;;19.46;71.92;101044.63;4919556;29;20107;-68
2021/07/24 02:32:20;;;;;;;4.35;3.95;;;19.20;99.90;;;19.43;72.29;101028.66;4936117;29;20524;-68
2021/07/24 02:34:49;;;;;;;3.17;2.97;;;19.20;99.90;;;19.39;72.43;101030.59;4936115;29;20050;-68
2021/07/24 02:37:18;;;;;;;3.03;2.90;;;19.10;99.90;;;19.29;72.44;101013.06;4936594;29;20076;-68
2021/07/24 02:39:48;;;;;;;3.30;3.10;;;19.10;99.90;;;18.75;72.64;100907.88;4919191;29;20490;-68
2021/07/24 02:42:21;;;;;;;3.13;3.03;;;19.10;99.90;;;19.33;72.64;101003.09;4919237;29;20514;-68
2021/07/24 02:44:50;;;;;;;2.72;2.63;;;19.10;99.90;;;19.23;72.96;101010.59;4918851;29;20047;-68
2021/07/24 02:47:18;;;;;;;4.93;4.45;;;19.00;99.90;;;19.17;73.31;101018.88;4936220;29;20044;-68
2021/07/24 02:49:52;;;;;;;3.03;2.88;;;19.00;99.90;;;19.18;73.64;101015.25;4919204;29;20051;-68
2021/07/24 02:52:20;;;;;;;3.42;3.20;;;19.00;99.90;;;19.05;74.02;100992.50;4918766;29;20568;-68
2021/07/24 02:54:51;;;;;;;2.53;2.42;;;18.80;99.90;;;19.02;74.49;100976.53;4918773;29;20040;-68
2021/07/24 02:57:19;;;;;;;4.63;3.72;;;18.80;99.90;;;18.98;74.50;100953.44;4918997;29;20048;-68
2021/07/24 02:59:49;;;;;;;3.85;3.33;;;18.80;99.90;;;18.91;74.69;100928.66;4936118;29;20052;-68
2021/07/24 03:02:18;;;;;;;2.67;2.58;;;18.70;99.90;;;19.00;74.86;100919.41;4935960;29;20044;-68
2021/07/24 03:04:51;;;;;;;4.75;4.35;;;18.80;99.90;;;19.04;74.52;100929.09;4918971;29;20059;-68
2021/07/24 03:07:19;;;;;;;3.78;3.47;;;18.80;99.90;;;19.05;74.53;100932.66;4936067;29;20067;-67
2021/07/24 03:09:50;;;;;;;3.03;2.92;;;18.80;99.90;;;19.04;74.45;100936.25;4918889;29;20062;-68
2021/07/24 03:12:18;;;;;;;10.00;4.13;;;18.80;99.90;;;19.04;74.52;100949.66;4935776;29;20071;-68
2021/07/24 03:14:46;;;;;;;2.88;2.78;;;18.80;99.90;;;19.03;74.48;100950.59;4935669;29;20127;-68
2021/07/24 03:17:15;;;;;;;3.30;3.10;;;18.80;99.90;;;18.90;74.30;100929.63;4935901;29;20099;-68
2021/07/24 03:19:44;;;;;;;4.80;4.40;;;18.80;99.90;;;19.15;74.27;100960.84;4935920;29;20040;-68
2021/07/24 03:22:12;;;;;;;2.50;2.40;;;18.90;99.90;;;19.20;74.04;100953.53;4935703;29;20047;-68
2021/07/24 03:24:41;;;;;;;3.28;3.08;;;18.90;99.90;;;19.13;74.08;100968.06;4935630;29;20066;-68
2021/07/24 03:27:10;;;;;;;6.60;4.22;;;18.90;99.90;;;18.99;74.53;100957.88;4935822;29;20073;-68
2021/07/24 03:29:39;;;;;;;3.80;3.57;;;18.80;99.90;;;18.99;74.73;100955.19;4918760;29;20107;-68
2021/07/24 03:32:08;;;;;;;2.88;2.78;;;18.80;99.90;;;19.10;74.46;100952.13;4935543;29;20549;-68
2021/07/24 03:34:36;;;;;;;3.95;3.67;;;18.80;99.90;;;18.98;74.84;100955.25;4935907;29;20047;-68
2021/07/24 03:37:05;;;;;;;3.60;3.25;;;18.80;99.90;;;19.00;74.74;100958.75;4935772;29;20048;-68
2021/07/24 03:39:33;;;;;;;4.32;4.03;;;18.80;99.90;;;18.98;74.80;100963.28;4935766;29;20110;-68
2021/07/24 03:42:03;;;;;;;3.65;3.45;;;18.70;99.90;;;18.90;74.81;100932.28;4935615;29;20044;-68
2021/07/24 03:44:32;;;;;;;4.78;4.35;;;18.70;99.90;;;18.82;74.89;100926.34;4935736;29;20044;-68
2021/07/24 03:47:01;;;;;;;3.22;3.10;;;18.70;99.90;;;18.79;75.20;100918.41;4921115;29;20454;-68
2021/07/24 03:49:29;;;;;;;3.85;3.58;;;18.60;99.90;;;18.92;75.29;100922.38;4939208;29;20405;-68
2021/07/24 03:51:58;;;;;;;2.63;2.53;;;18.60;99.90;;;18.90;75.05;100923.38;4922114;29;20048;-68
2021/07/24 03:54:28;;;;;;;4.38;4.07;;;18.70;99.90;;;18.38;75.03;100854.72;4939155;29;20051;-68
2021/07/24 03:56:56;;;;;;;3.65;3.35;;;18.60;99.90;;;18.76;75.13;100931.03;4939413;29;20047;-68
2021/07/24 03:59:25;;;;;;;3.80;3.50;;;18.60;99.90;;;18.56;75.62;100929.09;4939030;29;20040;-68
2021/07/24 04:01:57;;;;;;;5.20;4.63;;;18.50;99.90;;;18.62;75.78;100934.22;4921853;29;20048;-68
2021/07/24 04:04:26;;;;;;;3.92;3.72;;;18.40;99.90;;;18.53;76.31;100941.72;4921849;29;20051;-68
2021/07/24 04:06:56;;;;;;;3.58;3.38;;;18.40;99.90;;;18.06;78.08;100948.69;4938937;29;20040;-68
2021/07/24 04:09:24;;;;;;;4.25;3.95;;;18.00;99.90;;;18.03;78.49;100959.50;4938934;29;20040;-68
2021/07/24 04:11:53;;;;;;;8.65;5.78;;;17.80;99.90;;;17.79;79.59;100960.31;4938843;29;20047;-68
2021/07/24 04:14:21;;;;;;;6.88;5.25;;;17.60;99.90;;;17.45;81.03;100964.94;4938808;29;20040;-68
2021/07/24 04:16:50;;;;;;;5.18;4.65;;;17.30;99.90;;;17.26;82.21;100969.13;4938752;29;20059;-68
2021/07/24 04:19:22;;;;;;;4.32;4.13;;;17.10;99.90;;;17.49;82.48;100980.03;4938754;29;20110;-68
2021/07/24 04:21:50;;;;;;;3.92;3.72;;;17.10;99.90;;;17.51;81.98;100975.50;4938488;29;20410;-68
2021/07/24 04:24:19;;;;;;;4.72;3.05;;;17.20;99.90;;;17.59;81.97;100970.78;4938352;29;20044;-68
2021/07/24 04:26:49;;;;;;;4.45;4.18;;;17.30;99.90;;;17.60;81.72;100977.88;4938685;29;20052;-68
2021/07/24 04:29:19;;;;;;;4.70;4.22;;;17.40;99.90;;;17.30;82.88;100982.34;4938636;29;20083;-68
2021/07/24 04:31:48;;;;;;;4.30;4.03;;;17.20;99.90;;;17.44;82.73;100988.13;4938556;29;20119;-68
2021/07/24 04:34:16;;;;;;;4.93;4.47;;;17.20;99.90;;;17.35;82.90;100984.88;4938124;29;20048;-68
2021/07/24 04:36:46;;;;;;;5.50;5.10;;;17.10;99.90;;;17.29;83.00;100991.28;4938389;29;20044;-68
2021/07/24 04:39:14;;;;;;;3.37;3.17;;;17.10;99.90;;;17.61;82.37;100991.22;4921241;29;20556;-68
2021/07/24 04:41:43;;;;;;;3.22;3.13;;;17.30;99.90;;;17.65;82.10;100979.47;4938315;29;20290;-68
2021/07/24 04:44:11;;;;;;;2.60;2.50;;;17.40;99.90;;;17.78;81.49;100975.50;4937961;29;20498;-68
2021/07/24 04:46:40;;;;;;;4.93;3.65;;;17.60;99.90;;;17.75;80.62;100930.09;4938228;29;20103;-68
2021/07/24 04:49:08;;;;;;;2.80;2.70;;;17.60;99.90;;;18.05;80.28;100941.59;4938232;29;20059;-68
2021/07/24 04:51:37;;;;;;;3.28;3.15;;;17.80;99.90;;;18.19;79.76;100941.13;4938175;29;20039;-68
2021/07/24 04:54:09;;;;;;;5.43;4.65;;;17.90;99.90;;;18.12;78.95;100945.81;4937843;29;20135;-68
2021/07/24 04:56:38;;;;;;;4.18;3.80;;;18.00;99.90;;;18.12;79.33;100945.81;4920893;29;20188;-68
2021/07/24 04:59:08;;;;;;;3.03;2.85;;;18.00;99.90;;;18.15;79.40;100942.16;4938203;29;20047;-68
2021/07/24 05:01:39;;;;;;;2.72;2.63;;;17.90;99.90;;;18.26;79.20;100954.25;4937980;29;20047;-68
2021/07/24 05:04:07;;;;;;;3.05;2.95;;;18.00;99.90;;;18.38;78.90;100942.25;4937503;29;20052;-68
2021/07/24 05:06:37;;;;;;;2.33;2.22;;;18.10;99.90;;;18.40;78.77;100927.88;4937828;29;20055;-68
2021/07/24 05:09:07;;;;;;;2.72;2.63;;;18.20;99.90;;;18.46;78.33;100935.72;4937779;29;20445;-68
2021/07/24 05:11:36;;;;;;;4.47;4.22;;;18.20;99.90;;;18.32;78.21;100940.66;4937538;29;20565;-68
2021/07/24 05:14:04;;;;;;;3.10;3.00;;;18.20;99.90;;;18.12;78.50;100929.75;4937769;29;20054;-68
2021/07/24 05:16:33;;;;;;;2.85;2.75;;;18.10;99.90;;;18.40;78.33;100919.84;4937436;29;20044;-68
2021/07/24 05:19:01;;;;;;;3.58;3.38;;;18.20;99.90;;;18.55;77.93;100943.44;4937653;29;20106;-68
2021/07/24 05:21:30;;;;;;;4.32;4.03;;;18.30;99.90;;;18.38;77.99;100932.41;4937588;29;20040;-68
2021/07/24 05:23:58;;;;;;;2.63;2.53;;;18.30;99.90;;;18.42;78.00;100918.00;4937226;29;20135;-68
2021/07/24 05:26:28;;;;;;;3.67;3.42;;;18.30;99.90;;;18.59;77.67;100925.44;4938083;29;20114;-68
2021/07/24 05:28:56;;;;;;;4.87;4.43;;;18.40;99.90;;;18.38;77.96;100932.41;4937432;29;20394;-68
2021/07/24 05:31:25;;;;;;;6.70;4.47;;;18.20;99.90;;;17.67;80.47;100908.06;4937653;29;20040;-68
2021/07/24 05:33:53;;;;;;;5.93;5.35;;;17.70;99.90;;;17.48;82.64;100927.44;4937144;29;20105;-68
2021/07/24 05:36:22;;;;;;;2.90;2.80;;;17.30;99.90;;;17.78;82.13;100908.63;4937202;29;20151;-68
2021/07/24 05:38:50;;;;;;;3.88;3.67;;;17.50;99.90;;;17.86;81.72;100916.38;4937215;29;20050;-68
2021/07/24 05:41:18;;;;;;;5.30;4.90;;;17.60;99.90;;;18.03;80.84;100911.31;4937149;29;20051;-67
2021/07/24 05:43:48;;;;;;;3.38;3.15;;;17.80;99.90;;;17.95;81.00;100913.38;4937388;29;20082;-68
2021/07/24 05:46:16;;;;;;;2.70;2.60;;;17.80;99.90;;;18.12;81.02;100902.13;4937013;29;20079;-68
2021/07/24 05:48:45;;;;;;;4.88;4.55;;;17.80;99.90;;;18.20;80.50;100890.19;4937018;29;20099;-68
2021/07/24 05:51:13;;;;;;;3.72;3.45;;;18.00;99.90;;;18.26;80.32;100879.28;4936749;29;20643;-68
2021/07/24 05:53:42;;;;;;;3.17;3.08;;;18.00;99.90;;;18.34;79.84;100881.66;4936718;29;20513;-68
2021/07/24 05:56:10;;;;;;;3.13;2.92;;;18.10;99.90;;;18.42;79.54;100867.13;4919843;29;20058;-68
2021/07/24 05:58:39;;;;;;;3.20;3.10;;;18.20;99.90;;;18.43;78.99;100859.94;4936968;29;20069;-68
2021/07/24 06:01:11;;;;;;;8.90;3.83;;;18.30;99.90;;;18.28;79.01;100871.19;4936877;29;20039;-68
2021/07/24 06:03:41;;;;;;;2.95;2.85;;;18.20;99.90;;;18.18;80.46;100901.88;4936145;29;20107;-68
2021/07/24 06:06:10;;;;;;;7.78;4.80;;;18.10;99.90;;;18.13;81.24;100902.06;4936897;29;20102;-68
2021/07/24 06:08:39;;;;;;;4.20;3.80;;;17.90;99.90;;;17.73;81.27;100822.25;4936266;29;20048;-68
2021/07/24 06:11:07;;;;;;;3.80;3.50;;;17.90;99.90;;;18.31;80.73;100896.03;4936698;29;20044;-68
2021/07/24 06:13:35;;;;;;;10.00;5.65;;;18.00;99.90;;;18.02;80.74;100891.72;4936377;29;20048;-68
2021/07/24 06:16:05;;;;;;;4.90;4.53;;;17.90;99.90;;;18.03;82.02;100900.63;4936676;29;20048;-68
2021/07/24 06:18:35;;;;;;;4.68;4.35;;;17.80;99.90;;;18.26;81.38;100897.13;4936565;29;20152;-68
2021/07/24 06:21:03;;;;;;;5.28;4.00;;;18.00;99.90;;;18.00;81.89;100901.59;4936614;29;20454;-68
2021/07/24 06:23:32;;;;;;;3.05;2.95;;;17.90;99.90;;;18.03;82.65;100896.16;4936455;29;20076;-68
2021/07/24 06:26:03;;;;;;;8.93;5.88;;;17.80;99.90;;;17.79;82.95;100874.69;4936041;29;20055;-68
2021/07/24 06:28:32;;;;;;;3.28;3.10;;;17.80;99.90;;;18.13;81.94;100903.84;4919162;29;20524;-68
2021/07/24 06:31:02;;;;;;;11.38;5.00;;;17.90;99.90;;;18.12;82.21;100894.94;4936298;29;20071;-68
2021/07/24 06:33:32;;;;;;;3.10;3.00;;;17.90;99.90;;;18.46;81.88;100884.81;4936523;29;20054;-69
2021/07/24 06:36:02;;;;;;;3.13;2.92;;;18.10;99.90;;;18.63;81.01;100892.22;4919389;29;20073;-68
2021/07/24 06:38:30;;;;;;;2.90;2.80;;;18.30;99.90;;;18.85;79.88;100894.03;4936206;29;20386;-68
2021/07/24 06:41:00;;;;;;;3.75;3.55;;;18.60;99.90;;;18.97;79.12;100889.16;4936206;29;20048;-68
2021/07/24 06:43:29;;;;;;;2.67;2.58;;;18.70;99.90;;;18.69;79.81;100876.81;4936070;29;20047;-68
2021/07/24 06:45:57;;;;;;;2.72;2.63;;;18.50;99.90;;;18.95;78.73;100888.34;4936194;29;20048;-68
2021/07/24 06:48:26;;;;;;;3.78;3.58;;;18.70;99.90;;;19.11;77.91;100887.69;4936174;29;20051;-68
2021/07/24 06:51:06;;;;;;;8.20;5.70;;;18.80;99.90;;;18.43;77.10;100768.84;4919136;29;20055;-69
2021/07/24 06:53:35;;;;;;;2.85;2.72;;;18.90;99.90;;;19.21;77.70;100864.94;4936155;29;20051;-68
2021/07/24 06:56:04;;;;;;;3.10;3.00;;;19.00;99.90;;;19.15;77.38;100819.59;4936391;29;20079;-68
2021/07/24 06:58:33;;;;;;;3.40;3.30;;;19.10;99.90;;;19.43;77.09;100859.63;4936074;29;20099;-68
2021/07/24 07:01:07;;;;;;;2.72;2.63;;;19.20;99.90;;;19.57;76.75;100852.75;4935696;29;20085;-68
2021/07/24 07:03:36;;;;;;;2.63;2.53;;;19.30;99.90;;;19.57;76.32;100846.50;4936025;29;20047;-68
2021/07/24 07:06:07;;;;;;;2.85;2.75;;;19.40;99.90;;;19.58;76.00;100822.31;4918862;29;20446;-68
2021/07/24 07:08:36;;;;;;;2.67;2.58;;;19.50;99.90;;;19.61;75.60;100821.28;4935792;29;20047;-68
2021/07/24 07:11:06;;;;;;;3.25;3.15;;;19.50;99.90;;;19.74;75.33;100838.63;4918937;29;20403;-68
2021/07/24 07:13:35;;;;;;;3.15;2.95;;;19.50;99.90;;;19.83;74.97;100840.91;4919041;29;20051;-68
2021/07/24 07:16:07;;;;;;;2.30;2.20;;;19.60;99.90;;;19.90;74.75;100839.69;4936018;29;20043;-68
2021/07/24 07:18:38;;;;;;;2.20;2.10;;;19.70;99.90;;;19.90;74.75;100845.06;4936047;29;20130;-68
2021/07/24 07:21:10;;;;;;;3.53;3.33;;;19.70;99.90;;;19.86;74.56;100845.28;4937013;29;20434;-68
2021/07/24 07:23:39;;;;;;;2.72;2.63;;;19.70;99.90;;;19.69;75.01;100821.84;4939296;29;20126;-68
2021/07/24 07:26:07;;;;;;;3.55;3.28;;;19.70;99.90;;;19.99;74.86;100839.31;4939025;29;20052;-68
2021/07/24 07:28:35;;;;;;;2.75;2.63;;;19.70;99.90;;;19.88;74.75;100857.69;4939652;29;20095;-68
2021/07/24 07:31:04;;;;;;;6.25;4.95;;;19.70;99.90;;;19.81;74.98;100848.16;4939591;29;20050;-69
2021/07/24 07:33:32;;;;;;;4.70;4.30;;;19.70;99.90;;;19.48;76.41;100846.88;4922357;29;20442;-68
2021/07/24 07:36:01;;;;;;;10.93;3.65;;;19.30;99.90;;;19.71;76.50;100847.69;4939498;29;20043;-68
2021/07/24 07:38:31;;;;;;;2.45;2.35;;;19.40;99.90;;;19.93;76.20;100849.44;4939395;29;20055;-68
2021/07/24 07:40:59;;;;;;;2.97;2.85;;;19.60;99.90;;;20.08;75.43;100849.66;4939490;29;20454;-68
2021/07/24 07:43:28;;;;;;;2.97;2.88;;;19.80;99.90;;;20.11;75.11;100844.13;4939510;29;20064;-68
2021/07/24 07:45:59;;;;;;;3.83;3.58;;;19.90;99.90;;;20.21;74.67;100836.59;4921923;29;20047;-68
2021/07/24 07:48:28;;;;;;;2.67;2.58;;;20.00;99.90;;;20.28;74.53;100832.69;4922412;29;20064;-68
2021/07/24 07:50:58;;;;;;;2.50;2.40;;;20.00;99.90;;;20.42;74.28;100827.59;4939254;29;20047;-69
2021/07/24 07:53:27;;;;;;;2.75;2.55;;;20.20;99.90;;;20.44;73.53;100823.88;4939301;29;20062;-68
2021/07/24 07:55:56;;;;;;;2.58;2.47;;;20.30;99.90;;;20.53;73.51;100825.28;4922076;29;20043;-68
2021/07/24 07:58:25;;;;;;;2.88;2.78;;;20.30;99.90;;;20.57;73.17;100817.00;4939345;29;20048;-68
2021/07/24 08:00:54;;;;;;;2.45;2.35;;;20.40;99.90;;;20.65;72.85;100830.94;4938946;29;20083;-68
2021/07/24 08:03:25;;;;;;;2.60;2.50;;;20.40;99.90;;;20.71;72.69;100826.25;4939129;29;20054;-68
2021/07/24 08:05:54;;;;;;;2.92;2.83;;;20.50;99.90;;;20.76;72.65;100822.38;4938877;29;20044;-68
2021/07/24 08:08:23;;;;;;;2.70;2.60;;;20.60;99.90;;;20.62;72.90;100828.41;4939110;29;20042;-68
2021/07/24 08:10:51;;;;;;;3.15;3.05;;;20.40;99.90;;;20.80;72.48;100829.38;4938585;29;20130;-68
2021/07/24 08:13:21;;;;;;;3.10;2.90;;;20.60;99.90;;;20.87;72.32;100821.88;4921698;29;20123;-68
2021/07/24 08:15:49;;;;;;;7.15;4.57;;;20.60;99.90;;;20.83;71.82;100817.59;4938814;29;20074;-68
2021/07/24 08:18:18;;;;;;;3.15;2.95;;;20.70;99.90;;;20.77;72.07;100826.81;4938556;29;20059;-68
2021/07/24 08:20:46;;;;;;;2.55;2.45;;;20.60;99.90;;;20.84;72.02;100824.72;4938683;29;20052;-68
2021/07/24 08:23:15;;;;;;;3.38;3.28;;;20.60;99.90;;;20.82;72.21;100822.09;4938682;29;20063;-69
2021/07/24 08:25:45;;;;;;;2.45;2.35;;;20.70;99.90;;;20.92;72.18;100828.78;4938555;29;20094;-69
2021/07/24 08:28:13;;;;;;;2.70;2.60;;;20.70;99.90;;;20.91;71.97;100826.16;4921482;29;20497;-68
2021/07/24 08:30:46;;;;;;;2.38;2.28;;;20.70;99.90;;;21.01;72.09;100824.81;4921668;29;20056;-68
2021/07/24 08:33:15;;;;;;;4.70;4.43;;;20.80;99.90;;;21.15;71.87;100825.03;4920633;29;20043;-68
2021/07/24 08:35:43;;;;;;;2.50;2.40;;;20.90;99.90;;;21.15;71.79;100823.22;4938305;29;20074;-68
2021/07/24 08:38:11;;;;;;;3.10;3.00;;;20.90;99.90;;;21.21;71.46;100836.38;4938117;29;20051;-68
2021/07/24 08:40:40;;;;;;;2.95;2.85;;;21.00;99.90;;;21.35;71.43;100843.78;4920561;29;20062;-68
2021/07/24 08:43:09;;;;;;;2.13;2.03;;;21.10;99.90;;;21.27;71.33;100819.06;4938306;29;20115;-68
2021/07/24 08:45:37;;;;;;;2.70;2.60;;;21.20;99.90;;;21.43;70.88;100847.81;4921060;29;20098;-68
2021/07/24 08:48:08;;;;;;;2.60;2.50;;;21.30;99.90;;;21.31;70.54;100817.97;4938230;29;20043;-68
2021/07/24 08:50:45;;;;;;;2.47;2.38;;;21.20;99.90;;;21.54;70.27;100847.28;4921176;29;20442;-68
2021/07/24 08:53:21;;;;;;;3.00;2.85;;;21.30;99.90;;;21.07;70.51;100757.25;4938271;29;20036;-68
2021/07/24 08:55:50;;;;;;;2.40;2.30;;;21.30;99.90;;;21.59;70.28;100823.69;4938093;29;20055;-68
2021/07/24 08:58:19;;;;;;;2.13;2.03;;;21.40;99.90;;;21.58;70.23;100830.03;4938194;29;20048;-69
2021/07/24 09:00:47;;;;;;;2.50;2.40;;;21.40;99.90;;;21.33;69.88;100773.00;4937583;29;20123;-68
2021/07/24 09:03:19;;;;;;;2.50;2.40;;;21.40;99.90;;;21.66;69.93;100822.44;4937674;29;20070;-69
2021/07/24 09:05:51;;;;;;;3.85;3.65;;;21.40;99.90;;;21.73;69.68;100823.00;4937933;29;20095;-68
2021/07/24 09:08:19;;;;;;;2.03;1.92;;;21.50;99.90;;;21.77;69.77;100824.59;4937620;29;20044;-68
2021/07/24 09:10:50;;;;;;;2.20;2.10;;;21.60;99.90;;;21.79;69.61;100820.88;4920944;29;20079;-69
2021/07/24 09:13:19;;;;;;;2.53;2.42;;;21.60;99.90;;;21.73;69.64;100785.28;4937552;29;20059;-68
2021/07/24 09:15:48;;;;;;;2.70;2.55;;;21.70;99.90;;;22.02;69.76;100803.53;4937697;29;20548;-68
2021/07/24 09:18:18;;;;;;;2.22;2.13;;;21.80;99.90;;;22.08;69.44;100814.88;4937854;29;20438;-68
2021/07/24 09:20:47;;;;;;;2.50;2.40;;;21.90;99.90;;;22.11;69.33;100811.13;4937667;29;20048;-68
2021/07/24 09:23:27;;;;;;;2.17;2.08;;;21.90;99.90;;;22.19;69.41;100812.47;4920392;29;20510;-68
2021/07/24 09:25:57;;;;;;;2.35;2.25;;;22.00;99.90;;;22.24;69.26;100818.50;4937196;29;20059;-68
2021/07/24 09:28:26;;;;;;;2.22;2.13;;;22.00;99.90;;;22.29;68.97;100819.13;4937588;29;20051;-68
2021/07/24 09:30:54;;;;;;;2.60;2.50;;;22.10;99.90;;;22.37;69.21;100822.28;4937416;29;20493;-68
2021/07/24 09:33:24;;;;;;;2.00;1.90;;;22.10;99.90;;;22.40;69.38;100822.13;4937057;29;20048;-68
2021/07/24 09:36:02;;;;;;;2.65;2.55;;;22.20;99.90;;;22.39;69.08;100809.59;4937386;29;20035;-68
2021/07/24 09:38:32;;;;;;;2.65;2.55;;;22.20;99.90;;;22.03;69.19;100740.63;4937159;29;20098;-68
2021/07/24 09:41:04;;;;;;;2.72;2.63;;;22.20;99.90;;;22.41;69.60;100799.59;4936949;29;20386;-68
2021/07/24 09:43:35;;;;;;;2.58;2.47;;;22.30;99.90;;;22.44;69.30;100799.44;4936317;29;20054;-68
2021/07/24 09:46:15;;;;;;;2.22;2.13;;;22.30;99.90;;;22.55;69.31;100808.78;4937032;29;20048;-68
2021/07/24 09:48:46;;;;;;;2.20;2.10;;;22.30;99.90;;;22.49;69.09;100812.69;4937202;29;20090;-69
2021/07/24 09:51:19;;;;;;;7.40;3.78;;;22.30;99.90;;;22.56;68.98;100818.59;4937060;29;20043;-68
2021/07/24 09:53:48;;;;;;;3.50;3.30;;;22.30;99.90;;;22.51;69.04;100813.47;4936684;29;20103;-68
2021/07/24 09:56:17;;;;;;;2.50;2.40;;;22.40;99.90;;;22.57;68.92;100817.69;4936785;29;20083;-69
2021/07/24 09:58:46;;;;;;;2.38;2.28;;;22.40;99.90;;;22.70;69.01;100818.75;4936939;29;20052;-68
2021/07/24 10:01:19;;;;;;;2.35;2.25;;;22.40;99.90;;;22.75;69.32;100812.13;4936821;29;20580;-68
2021/07/24 10:03:51;;;;;;;2.40;2.30;;;22.50;99.90;;;22.80;69.25;100814.59;4919503;29;20528;-68
2021/07/24 10:06:20;;;;;;;4.43;2.80;;;22.60;99.90;;;22.69;69.38;100790.00;4936685;29;20046;-69
2021/07/24 10:08:50;;;;;;;2.33;2.22;;;22.60;99.90;;;22.72;69.17;100792.56;4936450;29;20051;-68
2021/07/24 10:11:19;;;;;;;2.13;2.03;;;22.60;99.90;;;22.87;69.34;100806.06;4936690;29;20098;-68
2021/07/24 10:13:47;;;;;;;2.38;2.28;;;22.60;99.90;;;22.94;69.28;100803.88;4936564;29;20449;-68
2021/07/24 10:16:19;;;;;;;2.20;2.10;;;22.70;99.90;;;22.97;69.57;100806.41;4936597;29;20079;-69
2021/07/24 10:18:50;;;;;;;2.75;2.65;;;22.80;99.90;;;22.45;68.78;100716.75;4936622;29;20043;-69
2021/07/24 10:21:20;;;;;;;2.40;2.30;;;22.80;99.90;;;23.07;69.26;100815.75;4936851;29;20481;-69
2021/07/24 10:23:48;;;;;;;2.92;2.83;;;22.90;99.90;;;23.01;69.11;100811.56;4936569;29;20051;-68
2021/07/24 10:26:23;;;;;;;2.60;2.50;;;22.80;99.90;;;23.07;68.80;100813.03;4936412;29;20169;-69
2021/07/24 10:28:57;;;;;;;3.17;3.00;;;22.90;99.90;;;23.09;68.98;100817.38;4919070;29;20202;-68